sensor_id;sensor_type;location;lat;lon;timestamp;pressure;altitude;pressure_sealevel;temperature;humidity
31337;BME280;22846;42.654;23.314;2023-03-16T00:00:43;93626.03;;;23.64;55.36
31337;BME280;22846;42.654;23.314;2023-03-16T00:03:10;93639.53;;;23.67;55.41
31337;BME280;22846;42.654;23.314;2023-03-16T00:05:36;93641.47;;;23.67;55.28
31337;BME280;22846;42.654;23.314;2023-03-16T00:08:02;93645.88;;;23.64;55.13
31337;BME280;22846;42.654;23.314;2023-03-16T00:10:28;93645.09;;;23.64;55.38
31337;BME280;22846;42.654;23.314;2023-03-16T00:12:54;93638.16;;;23.63;55.70
31337;BME280;22846;42.654;23.314;2023-03-16T00:15:20;93631.50;;;23.55;55.53
31337;BME280;22846;42.654;23.314;2023-03-16T00:17:45;93652.53;;;23.63;55.30
31337;BME280;22846;42.654;23.314;2023-03-16T00:20:15;93657.25;;;23.63;55.19
31337;BME280;22846;42.654;23.314;2023-03-16T00:22:41;93663.91;;;23.62;55.36
31337;BME280;22846;42.654;23.314;2023-03-16T00:25:08;93654.66;;;23.59;55.42
31337;BME280;22846;42.654;23.314;2023-03-16T00:27:33;93658.16;;;23.60;55.30
31337;BME280;22846;42.654;23.314;2023-03-16T00:29:59;93651.19;;;23.59;55.22
31337;BME280;22846;42.654;23.314;2023-03-16T00:32:32;93654.22;;;23.61;55.41
31337;BME280;22846;42.654;23.314;2023-03-16T00:34:58;93658.47;;;23.62;55.27
31337;BME280;22846;42.654;23.314;2023-03-16T00:37:26;93656.94;;;23.61;55.33
31337;BME280;22846;42.654;23.314;2023-03-16T00:39:52;93666.34;;;23.60;55.38
31337;BME280;22846;42.654;23.314;2023-03-16T00:42:24;93664.81;;;23.59;55.29
31337;BME280;22846;42.654;23.314;2023-03-16T00:44:56;93671.47;;;23.58;55.26
31337;BME280;22846;42.654;23.314;2023-03-16T00:47:23;93640.28;;;23.41;55.60
31337;BME280;22846;42.654;23.314;2023-03-16T00:49:48;93656.03;;;23.46;55.09
31337;BME280;22846;42.654;23.314;2023-03-16T00:52:14;93661.63;;;23.51;55.21
31337;BME280;22846;42.654;23.314;2023-03-16T00:54:44;93665.88;;;23.52;55.34
31337;BME280;22846;42.654;23.314;2023-03-16T00:57:11;93671.19;;;23.56;55.46
31337;BME280;22846;42.654;23.314;2023-03-16T00:59:38;93665.72;;;23.56;55.08
31337;BME280;22846;42.654;23.314;2023-03-16T01:02:05;93669.69;;;23.55;55.47
31337;BME280;22846;42.654;23.314;2023-03-16T01:04:30;93663.47;;;23.54;55.26
31337;BME280;22846;42.654;23.314;2023-03-16T01:06:56;93669.38;;;23.53;55.45
31337;BME280;22846;42.654;23.314;2023-03-16T01:09:22;93670.59;;;23.52;55.02
31337;BME280;22846;42.654;23.314;2023-03-16T01:11:47;93672.09;;;23.53;55.47
31337;BME280;22846;42.654;23.314;2023-03-16T01:14:18;93666.66;;;23.53;55.53
31337;BME280;22846;42.654;23.314;2023-03-16T01:16:43;93671.31;;;23.52;55.46
31337;BME280;22846;42.654;23.314;2023-03-16T01:19:13;93664.34;;;23.51;55.08
31337;BME280;22846;42.654;23.314;2023-03-16T01:21:41;93678.00;;;23.51;55.41
31337;BME280;22846;42.654;23.314;2023-03-16T01:24:08;93675.72;;;23.50;55.01
31337;BME280;22846;42.654;23.314;2023-03-16T01:26:34;93684.69;;;23.50;55.40
31337;BME280;22846;42.654;23.314;2023-03-16T01:28:59;93678.91;;;23.48;55.38
31337;BME280;22846;42.654;23.314;2023-03-16T01:31:27;93680.88;;;23.48;55.30
31337;BME280;22846;42.654;23.314;2023-03-16T01:33:53;93676.19;;;23.48;55.32
31337;BME280;22846;42.654;23.314;2023-03-16T01:36:20;93678.13;;;23.48;55.23
31337;BME280;22846;42.654;23.314;2023-03-16T01:38:46;93682.38;;;23.49;55.40
31337;BME280;22846;42.654;23.314;2023-03-16T01:41:11;93675.25;;;23.42;55.37
31337;BME280;22846;42.654;23.314;2023-03-16T01:54:11;93686.03;;;23.46;55.03
31337;BME280;22846;42.654;23.314;2023-03-16T01:56:44;93691.19;;;23.44;55.03
31337;BME280;22846;42.654;23.314;2023-03-16T01:59:15;93685.72;;;23.44;55.02
31337;BME280;22846;42.654;23.314;2023-03-16T02:01:41;93691.34;;;23.40;54.95
31337;BME280;22846;42.654;23.314;2023-03-16T02:04:31;93703.59;;;23.45;55.15
31337;BME280;22846;42.654;23.314;2023-03-16T02:07:02;93702.84;;;23.44;55.10
31337;BME280;22846;42.654;23.314;2023-03-16T02:09:29;93709.50;;;23.43;55.10
31337;BME280;22846;42.654;23.314;2023-03-16T02:11:57;93710.69;;;23.42;55.41
31337;BME280;22846;42.654;23.314;2023-03-16T02:14:22;93704.19;;;23.40;55.44
31337;BME280;22846;42.654;23.314;2023-03-16T02:16:49;93716.16;;;23.42;54.99
31337;BME280;22846;42.654;23.314;2023-03-16T02:19:26;93708.59;;;23.37;54.90
31337;BME280;22846;42.654;23.314;2023-03-16T02:22:02;93725.56;;;23.41;55.06
31337;BME280;22846;42.654;23.314;2023-03-16T02:24:28;93716.63;;;23.41;54.75
31337;BME280;22846;42.654;23.314;2023-03-16T02:26:58;93724.06;;;23.40;55.01
31337;BME280;22846;42.654;23.314;2023-03-16T02:32:13;93730.25;;;23.41;54.85
31337;BME280;22846;42.654;23.314;2023-03-16T02:34:40;93727.97;;;23.39;54.95
31337;BME280;22846;42.654;23.314;2023-03-16T02:37:06;93735.69;;;23.41;54.99
31337;BME280;22846;42.654;23.314;2023-03-16T02:39:33;93734.19;;;23.40;55.02
31337;BME280;22846;42.654;23.314;2023-03-16T02:41:59;93743.88;;;23.41;55.13
31337;BME280;22846;42.654;23.314;2023-03-16T02:44:31;93736.91;;;23.40;54.87
31337;BME280;22846;42.654;23.314;2023-03-16T02:47:08;93735.69;;;23.41;55.17
31337;BME280;22846;42.654;23.314;2023-03-16T02:49:37;93729.50;;;23.40;54.64
31337;BME280;22846;42.654;23.314;2023-03-16T02:52:06;93743.56;;;23.39;55.10
31337;BME280;22846;42.654;23.314;2023-03-16T02:54:32;93750.53;;;23.40;54.66
31337;BME280;22846;42.654;23.314;2023-03-16T02:56:57;93745.53;;;23.38;54.73
31337;BME280;22846;42.654;23.314;2023-03-16T02:59:23;93749.47;;;23.37;54.64
31337;BME280;22846;42.654;23.314;2023-03-16T03:01:48;93733.56;;;23.27;54.92
31337;BME280;22846;42.654;23.314;2023-03-16T03:04:13;93749.78;;;23.39;54.59
31337;BME280;22846;42.654;23.314;2023-03-16T03:06:39;93760.69;;;23.39;54.94
31337;BME280;22846;42.654;23.314;2023-03-16T03:09:07;93759.50;;;23.40;54.72
31337;BME280;22846;42.654;23.314;2023-03-16T03:11:36;93753.09;;;23.34;55.00
31337;BME280;22846;42.654;23.314;2023-03-16T03:14:02;93759.94;;;23.39;55.09
31337;BME280;22846;42.654;23.314;2023-03-16T03:16:28;93768.09;;;23.39;54.72
31337;BME280;22846;42.654;23.314;2023-03-16T03:18:54;93766.16;;;23.39;54.83
31337;BME280;22846;42.654;23.314;2023-03-16T03:21:20;93768.88;;;23.39;54.86
31337;BME280;22846;42.654;23.314;2023-03-16T03:23:46;93771.59;;;23.39;54.73
31337;BME280;22846;42.654;23.314;2023-03-16T03:26:13;93774.34;;;23.39;54.62
31337;BME280;22846;42.654;23.314;2023-03-16T03:28:42;93782.50;;;23.39;54.84
31337;BME280;22846;42.654;23.314;2023-03-16T03:31:18;93775.53;;;23.38;54.91
31337;BME280;22846;42.654;23.314;2023-03-16T03:33:44;93786.44;;;23.38;54.82
31337;BME280;22846;42.654;23.314;2023-03-16T03:36:09;93784.47;;;23.39;54.67
31337;BME280;22846;42.654;23.314;2023-03-16T03:38:36;93791.91;;;23.38;54.69
31337;BME280;22846;42.654;23.314;2023-03-16T03:41:02;93787.19;;;23.39;54.67
31337;BME280;22846;42.654;23.314;2023-03-16T03:43:28;93772.03;;;23.29;54.68
31337;BME280;22846;42.654;23.314;2023-03-16T03:45:58;93791.13;;;23.38;54.46
31337;BME280;22846;42.654;23.314;2023-03-16T03:48:24;93802.03;;;23.38;54.65
31337;BME280;22846;42.654;23.314;2023-03-16T03:50:50;93790.53;;;23.34;54.25
31337;BME280;22846;42.654;23.314;2023-03-16T03:53:16;93802.81;;;23.38;54.45
31337;BME280;22846;42.654;23.314;2023-03-16T03:55:41;93812.94;;;23.38;54.17
31337;BME280;22846;42.654;23.314;2023-03-16T03:58:06;93808.25;;;23.38;54.56
31337;BME280;22846;42.654;23.314;2023-03-16T04:00:32;93813.22;;;23.31;54.23
31337;BME280;22846;42.654;23.314;2023-03-16T04:02:57;93825.06;;;23.37;54.11
31337;BME280;22846;42.654;23.314;2023-03-16T04:05:23;93823.56;;;23.36;54.14
31337;BME280;22846;42.654;23.314;2023-03-16T04:07:52;93825.22;;;23.42;54.21
31337;BME280;22846;42.654;23.314;2023-03-16T04:10:25;93817.56;;;23.59;52.88
31337;BME280;22846;42.654;23.314;2023-03-16T04:12:50;93818.81;;;23.76;52.91
31337;BME280;22846;42.654;23.314;2023-03-16T04:15:16;93815.66;;;23.95;52.62
31337;BME280;22846;42.654;23.314;2023-03-16T04:17:41;93809.91;;;24.11;52.09
31337;BME280;22846;42.654;23.314;2023-03-16T04:20:07;93818.88;;;24.29;52.08
31337;BME280;22846;42.654;23.314;2023-03-16T04:22:37;93814.16;;;24.39;51.72
31337;BME280;22846;42.654;23.314;2023-03-16T04:25:03;93798.81;;;24.41;50.94
31337;BME280;22846;42.654;23.314;2023-03-16T04:27:29;93826.78;;;24.63;51.29
31337;BME280;22846;42.654;23.314;2023-03-16T04:30:03;93823.13;;;24.75;50.96
31337;BME280;22846;42.654;23.314;2023-03-16T04:32:29;93834.78;;;24.84;50.42
31337;BME280;22846;42.654;23.314;2023-03-16T04:34:55;93839.75;;;24.95;50.58
31337;BME280;22846;42.654;23.314;2023-03-16T04:37:21;93833.69;;;25.00;50.04
31337;BME280;22846;42.654;23.314;2023-03-16T04:39:46;93833.34;;;25.07;49.85
31337;BME280;22846;42.654;23.314;2023-03-16T04:42:12;93846.56;;;25.17;50.16
31337;BME280;22846;42.654;23.314;2023-03-16T04:44:37;93833.06;;;25.14;49.80
31337;BME280;22846;42.654;23.314;2023-03-16T04:47:13;93844.84;;;25.29;49.55
31337;BME280;22846;42.654;23.314;2023-03-16T04:49:38;93844.69;;;25.32;49.35
31337;BME280;22846;42.654;23.314;2023-03-16T04:52:05;93850.91;;;25.33;48.92
31337;BME280;22846;42.654;23.314;2023-03-16T04:54:31;93854.25;;;25.28;48.86
31337;BME280;22846;42.654;23.314;2023-03-16T04:56:57;93863.72;;;25.27;49.21
31337;BME280;22846;42.654;23.314;2023-03-16T04:59:23;93858.25;;;25.27;49.68
31337;BME280;22846;42.654;23.314;2023-03-16T05:01:48;93869.19;;;25.27;48.77
31337;BME280;22846;42.654;23.314;2023-03-16T05:04:14;93871.00;;;25.21;47.60
31337;BME280;22846;42.654;23.314;2023-03-16T05:06:39;93878.31;;;25.15;48.97
31337;BME280;22846;42.654;23.314;2023-03-16T05:09:05;93874.66;;;25.09;49.87
31337;BME280;22846;42.654;23.314;2023-03-16T05:11:33;93881.50;;;25.04;48.46
31337;BME280;22846;42.654;23.314;2023-03-16T05:13:58;93878.63;;;24.99;48.05
31337;BME280;22846;42.654;23.314;2023-03-16T05:16:23;93878.50;;;24.93;49.16
31337;BME280;22846;42.654;23.314;2023-03-16T05:18:49;93874.09;;;24.87;50.32
31337;BME280;22846;42.654;23.314;2023-03-16T05:21:14;93882.59;;;24.80;50.44
31337;BME280;22846;42.654;23.314;2023-03-16T05:23:40;93885.03;;;24.78;50.87
31337;BME280;22846;42.654;23.314;2023-03-16T05:26:06;93889.59;;;24.72;48.22
31337;BME280;22846;42.654;23.314;2023-03-16T05:28:31;93894.75;;;24.70;49.28
31337;BME280;22846;42.654;23.314;2023-03-16T05:30:57;93895.66;;;24.67;49.83
31337;BME280;22846;42.654;23.314;2023-03-16T05:33:22;93903.09;;;24.67;50.75
31337;BME280;22846;42.654;23.314;2023-03-16T05:35:49;93904.94;;;24.70;47.17
31337;BME280;22846;42.654;23.314;2023-03-16T05:38:15;93905.22;;;24.72;46.13
31337;BME280;22846;42.654;23.314;2023-03-16T05:40:40;93905.84;;;24.76;46.11
31337;BME280;22846;42.654;23.314;2023-03-16T05:43:06;93915.41;;;24.80;46.61
31337;BME280;22846;42.654;23.314;2023-03-16T05:45:32;93908.56;;;24.76;47.78
31337;BME280;22846;42.654;23.314;2023-03-16T05:47:58;93919.97;;;24.74;46.36
31337;BME280;22846;42.654;23.314;2023-03-16T05:50:24;93919.03;;;24.68;45.56
31337;BME280;22846;42.654;23.314;2023-03-16T05:52:50;93924.38;;;24.63;46.47
31337;BME280;22846;42.654;23.314;2023-03-16T05:55:17;93929.69;;;24.57;47.19
31337;BME280;22846;42.654;23.314;2023-03-16T05:57:42;93941.66;;;24.51;47.23
31337;BME280;22846;42.654;23.314;2023-03-16T06:00:10;93936.78;;;24.46;47.60
31337;BME280;22846;42.654;23.314;2023-03-16T06:02:44;93939.94;;;24.35;48.10
31337;BME280;22846;42.654;23.314;2023-03-16T06:05:11;93946.59;;;24.34;48.84
31337;BME280;22846;42.654;23.314;2023-03-16T06:07:36;93926.25;;;24.26;49.74
31337;BME280;22846;42.654;23.314;2023-03-16T06:10:02;93941.91;;;24.26;49.89
31337;BME280;22846;42.654;23.314;2023-03-16T06:12:29;93946.72;;;24.22;49.82
31337;BME280;22846;42.654;23.314;2023-03-16T06:14:54;93947.78;;;24.15;50.12
31337;BME280;22846;42.654;23.314;2023-03-16T06:17:20;93949.44;;;24.13;50.06
31337;BME280;22846;42.654;23.314;2023-03-16T06:19:45;93951.72;;;24.05;49.99
31337;BME280;22846;42.654;23.314;2023-03-16T06:22:11;93956.25;;;24.08;50.18
31337;BME280;22846;42.654;23.314;2023-03-16T06:24:36;93956.72;;;24.07;49.00
31337;BME280;22846;42.654;23.314;2023-03-16T06:27:02;93967.63;;;24.07;50.37
31337;BME280;22846;42.654;23.314;2023-03-16T06:29:28;93967.44;;;24.01;49.87
31337;BME280;22846;42.654;23.314;2023-03-16T06:31:53;93965.19;;;24.00;49.30
31337;BME280;22846;42.654;23.314;2023-03-16T06:34:19;93976.41;;;24.02;50.36
31337;BME280;22846;42.654;23.314;2023-03-16T06:36:44;93978.97;;;23.96;49.89
31337;BME280;22846;42.654;23.314;2023-03-16T06:39:10;93985.19;;;23.97;48.04
31337;BME280;22846;42.654;23.314;2023-03-16T06:41:35;93986.84;;;23.94;48.69
31337;BME280;22846;42.654;23.314;2023-03-16T06:44:02;93993.19;;;23.92;46.22
31337;BME280;22846;42.654;23.314;2023-03-16T06:46:27;94001.97;;;23.87;47.99
31337;BME280;22846;42.654;23.314;2023-03-16T06:48:53;93994.34;;;23.82;46.25
31337;BME280;22846;42.654;23.314;2023-03-16T06:51:18;93999.66;;;23.76;48.09
31337;BME280;22846;42.654;23.314;2023-03-16T06:53:43;94008.28;;;23.75;49.29
31337;BME280;22846;42.654;23.314;2023-03-16T06:56:09;94016.78;;;23.77;49.30
31337;BME280;22846;42.654;23.314;2023-03-16T06:58:34;94008.59;;;23.77;49.06
31337;BME280;22846;42.654;23.314;2023-03-16T07:01:01;94016.78;;;23.77;49.52
31337;BME280;22846;42.654;23.314;2023-03-16T07:03:27;94007.94;;;23.73;48.53
31337;BME280;22846;42.654;23.314;2023-03-16T07:05:53;94020.72;;;23.76;49.70
31337;BME280;22846;42.654;23.314;2023-03-16T07:08:18;94024.22;;;23.76;49.76
31337;BME280;22846;42.654;23.314;2023-03-16T07:10:44;94025.72;;;23.77;49.46
31337;BME280;22846;42.654;23.314;2023-03-16T07:13:09;94035.13;;;23.76;49.67
31337;BME280;22846;42.654;23.314;2023-03-16T07:15:34;94034.34;;;23.76;47.84
31337;BME280;22846;42.654;23.314;2023-03-16T07:18:00;94030.97;;;23.72;46.03
31337;BME280;22846;42.654;23.314;2023-03-16T07:20:25;94045.59;;;23.78;49.35
31337;BME280;22846;42.654;23.314;2023-03-16T07:22:52;94034.00;;;23.74;46.07
31337;BME280;22846;42.654;23.314;2023-03-16T07:25:18;94040.59;;;23.76;45.19
31337;BME280;22846;42.654;23.314;2023-03-16T07:27:43;94038.28;;;23.75;47.72
31337;BME280;22846;42.654;23.314;2023-03-16T07:30:11;94049.19;;;23.75;48.48
31337;BME280;22846;42.654;23.314;2023-03-16T07:32:39;94045.72;;;23.74;48.15
31337;BME280;22846;42.654;23.314;2023-03-16T07:35:06;94033.25;;;23.73;46.14
31337;BME280;22846;42.654;23.314;2023-03-16T07:37:32;94030.97;;;23.72;48.77
31337;BME280;22846;42.654;23.314;2023-03-16T07:39:59;94039.91;;;23.72;48.83
31337;BME280;22846;42.654;23.314;2023-03-16T07:42:25;94030.28;;;23.59;47.10
31337;BME280;22846;42.654;23.314;2023-03-16T07:44:51;94060.22;;;23.71;48.31
31337;BME280;22846;42.654;23.314;2023-03-16T07:47:16;94054.00;;;23.71;49.04
31337;BME280;22846;42.654;23.314;2023-03-16T07:49:41;94060.34;;;23.68;49.50
31337;BME280;22846;42.654;23.314;2023-03-16T07:52:09;94057.94;;;23.70;49.75
31337;BME280;22846;42.654;23.314;2023-03-16T07:54:34;94068.72;;;23.73;49.67
31337;BME280;22846;42.654;23.314;2023-03-16T07:57:00;94065.22;;;23.73;49.83
31337;BME280;22846;42.654;23.314;2023-03-16T07:59:25;94062.75;;;23.66;42.04
31337;BME280;22846;42.654;23.314;2023-03-16T08:01:51;94059.63;;;23.46;33.77
31337;BME280;22846;42.654;23.314;2023-03-16T08:04:16;94045.38;;;23.08;31.98
31337;BME280;22846;42.654;23.314;2023-03-16T08:06:42;94050.66;;;22.90;35.85
31337;BME280;22846;42.654;23.314;2023-03-16T08:09:08;94057.34;;;22.77;40.06
31337;BME280;22846;42.654;23.314;2023-03-16T08:11:33;94059.31;;;22.76;42.23
31337;BME280;22846;42.654;23.314;2023-03-16T08:13:59;94071.16;;;22.82;43.51
31337;BME280;22846;42.654;23.314;2023-03-16T08:16:25;94071.69;;;22.90;43.87
31337;BME280;22846;42.654;23.314;2023-03-16T08:18:51;94070.91;;;22.89;44.74
31337;BME280;22846;42.654;23.314;2023-03-16T08:21:18;94063.41;;;22.93;45.06
31337;BME280;22846;42.654;23.314;2023-03-16T08:23:44;94072.84;;;23.01;45.06
31337;BME280;22846;42.654;23.314;2023-03-16T08:26:20;94064.81;;;22.98;45.22
31337;BME280;22846;42.654;23.314;2023-03-16T08:28:46;94086.47;;;23.13;45.70
31337;BME280;22846;42.654;23.314;2023-03-16T08:31:13;94086.66;;;23.19;45.57
31337;BME280;22846;42.654;23.314;2023-03-16T08:33:41;94090.47;;;23.21;46.12
31337;BME280;22846;42.654;23.314;2023-03-16T08:36:08;94083.94;;;23.19;46.13
31337;BME280;22846;42.654;23.314;2023-03-16T08:38:34;94085.22;;;23.27;46.15
31337;BME280;22846;42.654;23.314;2023-03-16T08:40:59;94090.88;;;23.32;45.63
31337;BME280;22846;42.654;23.314;2023-03-16T08:43:26;94086.50;;;23.35;45.68
31337;BME280;22846;42.654;23.314;2023-03-16T08:45:52;94082.66;;;23.11;34.48
31337;BME280;22846;42.654;23.314;2023-03-16T08:48:18;94096.31;;;22.86;32.87
31337;BME280;22846;42.654;23.314;2023-03-16T08:50:45;94089.63;;;22.53;30.97
31337;BME280;22846;42.654;23.314;2023-03-16T08:53:12;94103.66;;;22.27;31.36
31337;BME280;22846;42.654;23.314;2023-03-16T08:55:38;94100.38;;;21.95;31.93
31337;BME280;22846;42.654;23.314;2023-03-16T08:58:06;94099.59;;;21.82;33.81
31337;BME280;22846;42.654;23.314;2023-03-16T09:00:32;94107.19;;;21.74;33.50
31337;BME280;22846;42.654;23.314;2023-03-16T09:02:57;94105.31;;;21.59;33.47
31337;BME280;22846;42.654;23.314;2023-03-16T09:05:24;94105.75;;;21.57;37.87
31337;BME280;22846;42.654;23.314;2023-03-16T09:07:50;94106.50;;;21.58;39.95
31337;BME280;22846;42.654;23.314;2023-03-16T09:10:15;94105.78;;;21.70;41.08
31337;BME280;22846;42.654;23.314;2023-03-16T09:12:42;94114.72;;;21.83;41.58
31337;BME280;22846;42.654;23.314;2023-03-16T09:15:08;94110.50;;;21.94;41.92
31337;BME280;22846;42.654;23.314;2023-03-16T09:17:37;94116.72;;;22.07;42.36
31337;BME280;22846;42.654;23.314;2023-03-16T09:20:03;94105.38;;;22.09;43.03
31337;BME280;22846;42.654;23.314;2023-03-16T09:22:30;94122.28;;;22.28;43.43
31337;BME280;22846;42.654;23.314;2023-03-16T09:24:55;94114.34;;;22.34;43.51
31337;BME280;22846;42.654;23.314;2023-03-16T09:27:20;94122.63;;;22.43;43.60
31337;BME280;22846;42.654;23.314;2023-03-16T09:29:46;94122.19;;;22.57;43.59
31337;BME280;22846;42.654;23.314;2023-03-16T09:32:12;94122.72;;;22.64;43.90
31337;BME280;22846;42.654;23.314;2023-03-16T09:34:38;94122.94;;;22.70;43.85
31337;BME280;22846;42.654;23.314;2023-03-16T09:37:04;94114.66;;;22.73;44.14
31337;BME280;22846;42.654;23.314;2023-03-16T09:39:29;94122.59;;;22.80;43.93
31337;BME280;22846;42.654;23.314;2023-03-16T09:42:29;94119.34;;;22.85;44.29
31337;BME280;22846;42.654;23.314;2023-03-16T09:45:17;94128.47;;;22.91;44.23
31337;BME280;22846;42.654;23.314;2023-03-16T09:47:49;94111.03;;;22.89;44.24
31337;BME280;22846;42.654;23.314;2023-03-16T09:50:21;94125.75;;;22.91;44.26
31337;BME280;22846;42.654;23.314;2023-03-16T09:55:41;94124.88;;;22.94;44.36
31337;BME280;22846;42.654;23.314;2023-03-16T09:58:18;94125.94;;;22.97;44.84
31337;BME280;22846;42.654;23.314;2023-03-16T10:01:02;94122.31;;;23.00;44.58
31337;BME280;22846;42.654;23.314;2023-03-16T10:03:57;94137.72;;;23.06;44.82
31337;BME280;22846;42.654;23.314;2023-03-16T10:06:26;94134.88;;;23.09;44.79
31337;BME280;22846;42.654;23.314;2023-03-16T10:09:06;94130.19;;;23.10;45.24
31337;BME280;22846;42.654;23.314;2023-03-16T10:11:52;94120.16;;;23.07;45.02
31337;BME280;22846;42.654;23.314;2023-03-16T10:14:24;94128.75;;;23.18;44.81
31337;BME280;22846;42.654;23.314;2023-03-16T10:17:13;94135.41;;;23.17;45.10
31337;BME280;22846;42.654;23.314;2023-03-16T10:19:44;94137.72;;;23.06;35.22
31337;BME280;22846;42.654;23.314;2023-03-16T10:22:21;94137.41;;;22.79;39.24
31337;BME280;22846;42.654;23.314;2023-03-16T10:27:35;94140.81;;;22.71;43.76
31337;BME280;22846;42.654;23.314;2023-03-16T10:30:05;94147.34;;;22.73;43.88
31337;BME280;22846;42.654;23.314;2023-03-16T10:32:32;94137.53;;;22.76;44.47
31337;BME280;22846;42.654;23.314;2023-03-16T10:37:48;94129.56;;;22.81;44.27
31337;BME280;22846;42.654;23.314;2023-03-16T10:40:14;94123.56;;;22.86;44.20
31337;BME280;22846;42.654;23.314;2023-03-16T10:42:39;94131.53;;;22.93;44.42
31337;BME280;22846;42.654;23.314;2023-03-16T10:45:19;94136.06;;;22.96;44.76
31337;BME280;22846;42.654;23.314;2023-03-16T10:47:47;94130.63;;;22.96;44.26
31337;BME280;22846;42.654;23.314;2023-03-16T10:50:14;94133.22;;;23.00;44.65
31337;BME280;22846;42.654;23.314;2023-03-16T10:52:44;94137.47;;;23.01;44.66
31337;BME280;22846;42.654;23.314;2023-03-16T10:55:18;94116.69;;;22.94;44.85
31337;BME280;22846;42.654;23.314;2023-03-16T10:57:52;94129.53;;;23.06;44.57
31337;BME280;22846;42.654;23.314;2023-03-16T11:00:33;94128.00;;;23.05;44.66
31337;BME280;22846;42.654;23.314;2023-03-16T11:03:00;94123.34;;;23.06;44.89
31337;BME280;22846;42.654;23.314;2023-03-16T11:05:36;94134.25;;;23.06;44.50
31337;BME280;22846;42.654;23.314;2023-03-16T11:08:07;94135.78;;;23.07;44.58
31337;BME280;22846;42.654;23.314;2023-03-16T11:10:44;94137.59;;;23.09;44.76
31337;BME280;22846;42.654;23.314;2023-03-16T11:13:17;94130.94;;;23.10;44.51
31337;BME280;22846;42.654;23.314;2023-03-16T11:18:40;94134.44;;;23.11;44.87
31337;BME280;22846;42.654;23.314;2023-03-16T11:21:22;94139.91;;;23.11;45.08
31337;BME280;22846;42.654;23.314;2023-03-16T11:23:55;94138.38;;;23.10;44.92
31337;BME280;22846;42.654;23.314;2023-03-16T11:26:27;94135.31;;;23.08;44.97
31337;BME280;22846;42.654;23.314;2023-03-16T11:29:01;94132.16;;;23.09;44.60
31337;BME280;22846;42.654;23.314;2023-03-16T11:34:17;94135.66;;;23.10;44.74
31337;BME280;22846;42.654;23.314;2023-03-16T11:44:47;94112.75;;;22.95;44.97
31337;BME280;22846;42.654;23.314;2023-03-16T11:50:09;94128.00;;;23.05;45.25
31337;BME280;22846;42.654;23.314;2023-03-16T11:58:14;94140.44;;;23.06;44.96
31337;BME280;22846;42.654;23.314;2023-03-16T12:14:52;94153.09;;;23.00;45.12
31337;BME280;22846;42.654;23.314;2023-03-16T12:17:28;94161.59;;;23.02;44.92
31337;BME280;22846;42.654;23.314;2023-03-16T12:20:02;94162.44;;;22.99;45.20
31337;BME280;22846;42.654;23.314;2023-03-16T12:22:43;94162.78;;;23.01;44.95
31337;BME280;22846;42.654;23.314;2023-03-16T12:25:16;94165.50;;;23.01;45.16
31337;BME280;22846;42.654;23.314;2023-03-16T12:27:45;94170.97;;;23.01;45.11
31337;BME280;22846;42.654;23.314;2023-03-16T12:30:35;94173.69;;;23.01;45.04
31337;BME280;22846;42.654;23.314;2023-03-16T12:46:53;94174.66;;;22.95;44.77
31337;BME280;22846;42.654;23.314;2023-03-16T12:49:21;94182.38;;;22.96;44.81
31337;BME280;22846;42.654;23.314;2023-03-16T12:52:01;94190.44;;;23.00;44.87
31337;BME280;22846;42.654;23.314;2023-03-16T12:54:27;94197.13;;;22.99;44.75
31337;BME280;22846;42.654;23.314;2023-03-16T12:57:00;94196.34;;;22.98;44.88
31337;BME280;22846;42.654;23.314;2023-03-16T12:59:44;94207.25;;;22.98;45.17
31337;BME280;22846;42.654;23.314;2023-03-16T13:02:24;94200.28;;;22.97;45.00
31337;BME280;22846;42.654;23.314;2023-03-16T13:04:57;94203.78;;;22.98;44.89
31337;BME280;22846;42.654;23.314;2023-03-16T13:07:25;94206.50;;;22.98;45.09
31337;BME280;22846;42.654;23.314;2023-03-16T13:10:06;94209.53;;;23.00;44.72
31337;BME280;22846;42.654;23.314;2023-03-16T13:12:37;94204.06;;;23.00;44.74
31337;BME280;22846;42.654;23.314;2023-03-16T13:18:33;94209.22;;;22.98;44.85
31337;BME280;22846;42.654;23.314;2023-03-16T13:23:22;94215.41;;;22.98;44.64
31337;BME280;22846;42.654;23.314;2023-03-16T13:28:27;94210.84;;;22.95;44.63
31337;BME280;22846;42.654;23.314;2023-03-16T13:30:53;94220.13;;;22.98;44.59
31337;BME280;22846;42.654;23.314;2023-03-16T13:33:45;94217.06;;;22.96;44.74
31337;BME280;22846;42.654;23.314;2023-03-16T13:36:11;94218.94;;;22.99;44.94
31337;BME280;22846;42.654;23.314;2023-03-16T13:38:38;94208.56;;;22.94;44.68
31337;BME280;22846;42.654;23.314;2023-03-16T13:41:08;94223.25;;;22.96;44.63
31337;BME280;22846;42.654;23.314;2023-03-16T13:43:38;94220.53;;;22.96;45.05
31337;BME280;22846;42.654;23.314;2023-03-16T13:46:15;94224.03;;;22.97;44.36
31337;BME280;22846;42.654;23.314;2023-03-16T13:48:41;94227.84;;;22.99;44.82
31337;BME280;22846;42.654;23.314;2023-03-16T13:51:13;94219.00;;;22.95;44.78
31337;BME280;22846;42.654;23.314;2023-03-16T13:53:40;94223.25;;;22.96;44.98
31337;BME280;22846;42.654;23.314;2023-03-16T13:56:06;94219.78;;;22.96;44.51
31337;BME280;22846;42.654;23.314;2023-03-16T13:58:37;94231.31;;;23.00;44.77
31337;BME280;22846;42.654;23.314;2023-03-16T14:01:13;94237.88;;;23.02;44.32
31337;BME280;22846;42.654;23.314;2023-03-16T14:03:42;94232.66;;;23.20;44.14
31337;BME280;22846;42.654;23.314;2023-03-16T14:06:24;94233.97;;;23.28;43.89
31337;BME280;22846;42.654;23.314;2023-03-16T14:08:53;94237.03;;;23.51;43.79
31337;BME280;22846;42.654;23.314;2023-03-16T14:11:21;94245.84;;;23.68;43.45
31337;BME280;22846;42.654;23.314;2023-03-16T14:13:54;94243.88;;;23.81;42.96
31337;BME280;22846;42.654;23.314;2023-03-16T14:16:25;94250.16;;;23.90;42.64